createdAt,value
2018-07-21T00:02:05.919Z,10.60
2018-07-21T00:04:40.263Z,9.60
2018-07-21T00:07:15.972Z,10.33
2018-07-21T00:09:51.863Z,10.43
2018-07-21T00:12:27.783Z,11.00
2018-07-21T00:15:02.205Z,10.00
2018-07-21T00:17:36.611Z,10.10
2018-07-21T00:20:13.195Z,8.87
2018-07-21T00:22:49.509Z,9.43
2018-07-21T00:25:24.055Z,9.73
2018-07-21T00:27:58.866Z,11.20
2018-07-21T00:30:33.244Z,9.37
2018-07-21T00:33:08.867Z,9.03
2018-07-21T00:35:43.254Z,9.57
2018-07-21T00:38:17.619Z,9.63
2018-07-21T00:40:52.275Z,8.47
2018-07-21T00:43:27.699Z,9.27
2018-07-21T00:46:03.822Z,8.87
2018-07-21T00:48:38.219Z,9.67
2018-07-21T00:51:13.925Z,8.47
2018-07-21T00:53:48.423Z,9.47
2018-07-21T00:56:22.838Z,9.30
2018-07-21T00:58:57.335Z,7.90
2018-07-21T01:01:31.607Z,7.80
2018-07-21T01:04:06.588Z,8.57
2018-07-21T01:06:41.899Z,7.83
2018-07-21T01:09:17.587Z,8.97
2018-07-21T01:12:07.312Z,7.73
2018-07-21T01:14:41.715Z,7.67
2018-07-21T01:17:16.191Z,7.50
2018-07-21T01:19:52.241Z,9.77
2018-07-21T01:22:26.737Z,9.00
2018-07-21T01:25:02.488Z,7.77
2018-07-21T01:27:37.084Z,7.77
2018-07-21T01:30:11.406Z,7.90
2018-07-21T01:32:48.639Z,7.33
2018-07-21T01:35:24.399Z,7.40
2018-07-21T01:37:58.994Z,9.20
2018-07-21T01:40:33.398Z,7.53
2018-07-21T01:43:09.122Z,7.70
2018-07-21T01:45:43.394Z,7.47
2018-07-21T01:48:17.846Z,6.70
2018-07-21T01:50:53.584Z,7.00
2018-07-21T01:53:27.951Z,6.80
2018-07-21T01:56:02.230Z,6.40
2018-07-21T01:58:36.577Z,6.90
2018-07-21T02:01:10.975Z,8.37
2018-07-21T02:03:47.199Z,7.87
2018-07-21T02:06:23.506Z,7.20
2018-07-21T02:08:59.340Z,6.73
2018-07-21T02:11:33.679Z,7.43
2018-07-21T02:14:09.461Z,6.87
2018-07-21T02:16:43.820Z,10.27
2018-07-21T02:19:19.972Z,8.00
2018-07-21T02:21:54.691Z,7.00
2018-07-21T02:24:31.392Z,6.97
2018-07-21T02:27:07.135Z,6.77
2018-07-21T02:29:41.585Z,7.03
2018-07-21T02:32:17.737Z,7.50
2018-07-21T02:34:52.146Z,7.10
2018-07-21T02:37:27.590Z,7.07
2018-07-21T02:40:03.439Z,9.17
2018-07-21T02:42:37.847Z,7.07
2018-07-21T02:45:12.188Z,6.67
2018-07-21T02:47:46.589Z,7.80
2018-07-21T02:50:22.570Z,7.70
2018-07-21T02:52:56.871Z,6.77
2018-07-21T02:55:31.479Z,6.37
2018-07-21T02:58:06.985Z,7.30
2018-07-21T03:00:41.511Z,7.70
2018-07-21T03:03:15.940Z,8.13
2018-07-21T03:05:51.888Z,9.10
2018-07-21T03:08:33.688Z,7.10
2018-07-21T03:11:08.138Z,8.70
2018-07-21T03:13:43.795Z,8.37
2018-07-21T03:16:18.203Z,9.23
2018-07-21T03:18:54.367Z,9.07
2018-07-21T03:21:28.758Z,8.20
2018-07-21T03:24:04.466Z,8.30
2018-07-21T03:26:38.911Z,8.67
2018-07-21T03:29:13.267Z,9.20
2018-07-21T03:31:49.184Z,8.73
2018-07-21T03:34:23.684Z,8.27
2018-07-21T03:36:58.435Z,9.60
2018-07-21T03:39:33.995Z,9.87
2018-07-21T03:42:08.283Z,10.43
2018-07-21T03:44:43.015Z,10.23
2018-07-21T03:47:17.411Z,9.17
2018-07-21T03:49:53.211Z,17.60
2018-07-21T03:52:28.978Z,10.03
2018-07-21T03:55:03.567Z,9.57
2018-07-21T03:57:37.879Z,10.83
2018-07-21T04:00:12.307Z,10.20
2018-07-21T04:02:46.931Z,11.17
2018-07-21T04:05:22.214Z,10.40
2018-07-21T04:08:06.424Z,9.30
2018-07-21T04:10:41.824Z,9.13
2018-07-21T04:13:17.582Z,9.50
2018-07-21T04:15:51.870Z,10.07
2018-07-21T04:18:35.251Z,8.70
2018-07-21T04:21:09.775Z,11.63
2018-07-21T04:23:45.575Z,14.10
2018-07-21T04:26:20.176Z,9.67
2018-07-21T04:28:54.791Z,9.60
2018-07-21T04:31:30.711Z,10.30
2018-07-21T04:34:06.434Z,9.97
2018-07-21T04:36:42.631Z,9.83
2018-07-21T04:39:18.239Z,9.07
2018-07-21T04:41:52.588Z,9.10
2018-07-21T04:44:28.322Z,8.90
2018-07-21T04:47:02.787Z,9.13
2018-07-21T04:49:38.707Z,9.47
2018-07-21T04:52:13.224Z,9.57
2018-07-21T04:54:47.610Z,11.20
2018-07-21T04:57:22.000Z,10.37
2018-07-21T04:59:58.222Z,8.73
2018-07-21T05:02:32.527Z,10.50
2018-07-21T05:05:07.203Z,12.73
2018-07-21T05:07:43.353Z,9.30
2018-07-21T05:10:18.956Z,8.30
2018-07-21T05:12:54.663Z,10.10
2018-07-21T05:15:29.335Z,8.23
2018-07-21T05:18:03.727Z,9.67
2018-07-21T05:20:39.607Z,8.70
2018-07-21T05:23:15.563Z,8.90
2018-07-21T05:25:50.096Z,8.77
2018-07-21T05:28:25.537Z,8.10
2018-07-21T05:30:59.814Z,9.00
2018-07-21T05:33:35.367Z,9.23
2018-07-21T05:36:16.060Z,9.13
2018-07-21T05:38:50.516Z,8.30
2018-07-21T05:41:25.354Z,7.17
2018-07-21T05:43:59.772Z,9.67
2018-07-21T05:46:34.715Z,8.10
2018-07-21T05:49:15.039Z,12.03
2018-07-21T05:51:50.758Z,8.27
2018-07-21T05:54:25.398Z,8.83
2018-07-21T05:57:01.335Z,8.97
2018-07-21T05:59:35.640Z,9.93
2018-07-21T06:02:10.804Z,9.17
2018-07-21T06:04:45.204Z,7.87
2018-07-21T06:07:19.722Z,9.60
2018-07-21T06:09:55.895Z,9.07
2018-07-21T06:12:31.776Z,9.60
2018-07-21T06:15:06.392Z,8.37
2018-07-21T06:17:40.784Z,11.27
2018-07-21T06:20:16.664Z,9.27
2018-07-21T06:22:52.530Z,9.73
2018-07-21T06:25:27.183Z,10.30
2018-07-21T06:28:01.762Z,10.73
2018-07-21T06:30:37.583Z,12.30
2018-07-21T06:33:13.525Z,11.47
2018-07-21T06:35:47.812Z,9.97
2018-07-21T06:38:22.214Z,10.63
2018-07-21T06:40:56.743Z,11.20
2018-07-21T06:43:32.248Z,10.37
2018-07-21T06:46:06.871Z,11.17
2018-07-21T06:48:41.454Z,10.77
2018-07-21T06:51:16.941Z,9.80
2018-07-21T06:53:51.603Z,11.33
2018-07-21T06:56:27.574Z,9.93
2018-07-21T06:59:02.038Z,11.50
2018-07-21T07:01:36.280Z,12.10
2018-07-21T07:04:10.848Z,10.90
2018-07-21T07:06:45.347Z,10.80
2018-07-21T07:09:22.886Z,11.00
2018-07-21T07:11:57.664Z,11.93
2018-07-21T07:14:33.135Z,9.90
2018-07-21T07:17:07.639Z,10.23
2018-07-21T07:19:43.576Z,10.73
2018-07-21T07:22:19.448Z,13.13
2018-07-21T07:24:54.881Z,10.70
2018-07-21T07:27:29.300Z,9.60
2018-07-21T07:30:05.841Z,10.67
2018-07-21T07:32:41.691Z,10.40
2018-07-21T07:35:18.289Z,11.87
2018-07-21T07:37:52.531Z,9.60
2018-07-21T07:40:27.028Z,10.50
2018-07-21T07:43:01.543Z,18.77
2018-07-21T07:45:36.004Z,9.20
2018-07-21T07:48:10.584Z,10.80
2018-07-21T07:50:46.329Z,11.03
2018-07-21T07:53:20.740Z,11.30
2018-07-21T07:55:56.735Z,11.33
2018-07-21T07:58:31.256Z,10.80
2018-07-21T08:01:05.538Z,11.03
2018-07-21T08:03:40.003Z,13.47
2018-07-21T08:06:14.283Z,11.97
2018-07-21T08:08:50.266Z,12.77
2018-07-21T08:11:24.550Z,12.40
2018-07-21T08:14:00.480Z,12.63
2018-07-21T08:16:36.152Z,12.80
2018-07-21T08:19:17.222Z,13.13
2018-07-21T08:21:51.517Z,12.80
2018-07-21T08:24:31.443Z,13.47
2018-07-21T08:27:07.546Z,14.10
2018-07-21T08:29:42.059Z,14.60
2018-07-21T08:32:17.896Z,15.30
2018-07-21T08:34:52.535Z,14.03
2018-07-21T08:37:26.819Z,12.60
2018-07-21T08:40:01.509Z,18.07
2018-07-21T08:42:35.910Z,13.87
2018-07-21T08:45:10.407Z,15.00
2018-07-21T08:47:44.859Z,13.43
2018-07-21T08:50:21.524Z,14.57
2018-07-21T08:52:55.856Z,14.87
2018-07-21T08:55:31.940Z,16.90
2018-07-21T08:58:06.545Z,14.50
2018-07-21T09:00:40.918Z,14.87
2018-07-21T09:03:15.694Z,14.60
2018-07-21T09:05:50.229Z,16.77
2018-07-21T09:08:34.531Z,15.57
2018-07-21T09:11:08.963Z,15.60
2018-07-21T09:13:44.372Z,15.87
2018-07-21T09:16:20.421Z,16.03
2018-07-21T09:18:56.006Z,16.60
2018-07-21T09:21:32.275Z,16.73
2018-07-21T09:24:07.846Z,15.27
2018-07-21T09:26:42.262Z,16.90
2018-07-21T09:29:16.755Z,16.30
2018-07-21T09:32:00.807Z,16.67
2018-07-21T09:34:35.379Z,16.10
2018-07-21T09:37:10.113Z,15.47
2018-07-21T09:39:44.661Z,16.03
2018-07-21T09:42:20.427Z,15.90
2018-07-21T09:44:54.971Z,15.90
2018-07-21T09:47:29.271Z,16.00
2018-07-21T09:50:06.299Z,14.63
2018-07-21T09:52:42.062Z,16.50
2018-07-21T09:55:16.515Z,17.10
2018-07-21T09:57:50.948Z,17.53
2018-07-21T10:00:30.758Z,16.30
2018-07-21T10:03:06.251Z,16.50
2018-07-21T10:05:40.788Z,15.83
2018-07-21T10:08:16.422Z,16.60
2018-07-21T10:10:52.278Z,16.70
2018-07-21T10:13:27.936Z,18.07
2018-07-21T10:16:02.686Z,17.40
2018-07-21T10:18:38.755Z,15.27
2018-07-21T10:21:14.743Z,20.57
2018-07-21T10:23:50.647Z,18.00
2018-07-21T10:26:31.159Z,18.40
2018-07-21T10:29:11.283Z,16.80
2018-07-21T10:31:47.287Z,17.80
2018-07-21T10:34:23.159Z,16.13
2018-07-21T10:36:57.547Z,16.00
2018-07-21T10:39:32.563Z,14.50
2018-07-21T10:42:07.031Z,14.77
2018-07-21T10:44:41.429Z,15.13
2018-07-21T10:47:15.690Z,14.37
2018-07-21T10:49:51.495Z,17.87
2018-07-21T10:52:26.147Z,15.10
2018-07-21T10:55:01.963Z,16.67
2018-07-21T10:57:36.246Z,14.60
2018-07-21T11:00:11.818Z,16.63
2018-07-21T11:02:46.047Z,16.03
2018-07-21T11:05:21.950Z,14.63
2018-07-21T11:07:57.320Z,14.73
2018-07-21T11:10:33.223Z,14.23
2018-07-21T11:13:08.846Z,13.17
2018-07-21T11:15:43.306Z,16.53
2018-07-21T11:21:07.523Z,14.80
2018-07-21T11:23:42.981Z,14.80
2018-07-21T11:26:17.396Z,13.63
2018-07-21T11:28:51.829Z,14.33
2018-07-21T11:31:28.115Z,16.90
2018-07-21T11:34:03.946Z,14.83
2018-07-21T11:36:38.468Z,14.20
2018-07-21T11:39:14.067Z,13.00
2018-07-21T11:41:48.379Z,14.43
2018-07-21T11:44:22.687Z,14.43
2018-07-21T11:46:58.490Z,14.17
2018-07-21T11:49:36.622Z,14.30
2018-07-21T11:52:12.434Z,14.57
2018-07-21T11:54:46.714Z,13.70
2018-07-21T11:57:21.188Z,13.73
2018-07-21T12:02:36.011Z,14.47
2018-07-21T12:05:11.739Z,14.63
2018-07-21T12:07:46.154Z,15.23
2018-07-21T12:10:21.703Z,14.23
2018-07-21T12:12:57.435Z,16.17
2018-07-21T12:15:31.885Z,17.47
2018-07-21T12:18:07.788Z,15.27
2018-07-21T12:20:43.503Z,14.83
2018-07-21T12:23:19.263Z,14.67
2018-07-21T12:25:54.002Z,14.70
2018-07-21T12:28:28.327Z,15.13
2018-07-21T12:31:03.010Z,15.40
2018-07-21T12:33:38.803Z,14.10
2018-07-21T12:36:13.255Z,14.63
2018-07-21T12:38:47.791Z,13.33
2018-07-21T12:41:24.049Z,13.30
2018-07-21T12:43:59.487Z,13.23
2018-07-21T12:46:33.863Z,14.60
2018-07-21T12:49:16.789Z,11.00
2018-07-21T12:51:51.179Z,12.13
2018-07-21T12:54:25.482Z,10.27
2018-07-21T12:56:59.810Z,13.33
2018-07-21T12:59:34.488Z,12.57
2018-07-21T13:02:10.219Z,12.13
2018-07-21T13:04:44.648Z,12.13
2018-07-21T13:07:19.063Z,14.60
2018-07-21T13:09:54.535Z,15.60
2018-07-21T13:12:34.123Z,15.50
2018-07-21T13:15:09.719Z,15.37
2018-07-21T13:17:44.251Z,13.93
2018-07-21T13:20:20.060Z,15.20
2018-07-21T13:22:56.027Z,13.23
2018-07-21T13:25:30.415Z,15.90
2018-07-21T13:28:05.415Z,15.33
2018-07-21T13:30:40.071Z,14.93
2018-07-21T13:33:15.939Z,12.57
2018-07-21T13:35:50.193Z,12.33
2018-07-21T13:38:24.995Z,13.13
2018-07-21T13:40:59.475Z,11.80
2018-07-21T13:43:33.928Z,11.20
2018-07-21T13:46:08.423Z,12.10
2018-07-21T13:48:51.883Z,12.97
2018-07-21T13:51:27.698Z,12.20
2018-07-21T13:54:02.294Z,12.50
2018-07-21T13:56:37.406Z,12.20
2018-07-21T13:59:11.795Z,14.40
2018-07-21T14:01:46.634Z,14.93
2018-07-21T14:04:27.718Z,12.90
2018-07-21T14:07:03.579Z,13.60
2018-07-21T14:09:39.486Z,13.17
2018-07-21T14:12:33.737Z,12.67
2018-07-21T14:15:08.273Z,11.37
2018-07-21T14:17:42.698Z,12.63
2018-07-21T14:20:19.387Z,12.17
2018-07-21T14:22:55.252Z,11.17
2018-07-21T14:25:31.424Z,11.73
2018-07-21T14:28:06.299Z,10.63
2018-07-21T14:30:40.624Z,10.93
2018-07-21T14:33:16.777Z,11.67
2018-07-21T14:35:51.261Z,10.83
2018-07-21T14:38:25.732Z,10.83
2018-07-21T14:41:00.026Z,11.23
2018-07-21T14:43:35.708Z,11.27
2018-07-21T14:46:10.059Z,11.30
2018-07-21T14:48:53.092Z,12.10
2018-07-21T14:51:28.751Z,13.97
2018-07-21T14:54:03.231Z,11.50
2018-07-21T14:56:38.132Z,12.57
2018-07-21T14:59:12.615Z,13.17
2018-07-21T15:01:47.122Z,12.50
2018-07-21T15:04:21.438Z,11.67
2018-07-21T15:06:57.030Z,11.53
2018-07-21T15:09:32.436Z,11.27
2018-07-21T15:12:07.262Z,11.30
2018-07-21T15:14:43.051Z,9.80
2018-07-21T15:17:17.487Z,13.50
2018-07-21T15:19:53.703Z,12.90
2018-07-21T15:22:28.129Z,12.20
2018-07-21T15:25:03.566Z,12.03
2018-07-21T15:27:38.118Z,12.10
2018-07-21T15:30:12.747Z,11.47
2018-07-21T15:32:48.577Z,13.50
2018-07-21T15:35:22.975Z,12.60
2018-07-21T15:37:57.347Z,12.90
2018-07-21T15:40:31.905Z,12.73
2018-07-21T15:43:06.568Z,13.40
2018-07-21T15:45:40.851Z,12.47
2018-07-21T15:48:15.421Z,12.53
2018-07-21T15:50:51.219Z,14.87
2018-07-21T15:53:25.807Z,14.20
2018-07-21T15:56:00.088Z,12.77
2018-07-21T15:58:34.727Z,12.43
2018-07-21T16:01:09.340Z,13.37
2018-07-21T16:03:43.744Z,12.03
2018-07-21T16:06:29.405Z,13.63
2018-07-21T16:09:08.451Z,13.63
2018-07-21T16:11:44.944Z,13.10
2018-07-21T16:14:20.159Z,13.13
2018-07-21T16:16:54.476Z,13.37
2018-07-21T16:19:30.295Z,13.83
2018-07-21T16:22:05.287Z,14.07
2018-07-21T16:24:40.891Z,13.90
2018-07-21T16:27:15.106Z,13.13
2018-07-21T16:29:49.927Z,14.03
2018-07-21T16:32:25.758Z,14.10
2018-07-21T16:35:00.371Z,15.50
2018-07-21T16:37:34.761Z,14.67
2018-07-21T16:40:09.336Z,14.90
2018-07-21T16:42:43.808Z,15.90
2018-07-21T16:45:18.146Z,14.27
2018-07-21T16:47:52.368Z,14.30
2018-07-21T16:50:28.109Z,14.60
2018-07-21T16:53:02.587Z,15.30
2018-07-21T16:55:38.210Z,14.27
2018-07-21T16:58:14.615Z,14.33
2018-07-21T17:00:49.165Z,14.53
2018-07-21T17:03:23.728Z,16.57
2018-07-21T17:05:59.763Z,14.60
2018-07-21T17:08:36.360Z,15.47
2018-07-21T17:11:10.720Z,13.77
2018-07-21T17:13:46.630Z,14.90
2018-07-21T17:16:21.246Z,14.50
2018-07-21T17:18:57.317Z,13.67
2018-07-21T17:21:31.627Z,15.17
2018-07-21T17:24:07.727Z,15.57
2018-07-21T17:26:42.194Z,15.20
2018-07-21T17:29:16.615Z,14.33
2018-07-21T17:33:21.940Z,14.20
2018-07-21T17:35:57.375Z,13.80
2018-07-21T17:38:31.662Z,14.03
2018-07-21T17:41:06.131Z,14.87
2018-07-21T17:43:40.863Z,13.40
2018-07-21T17:46:15.363Z,13.30
2018-07-21T17:48:54.240Z,14.03
2018-07-21T17:51:29.989Z,15.30
2018-07-21T17:54:04.571Z,14.83
2018-07-21T17:56:48.383Z,14.47
2018-07-21T17:59:22.844Z,16.63
2018-07-21T18:01:58.963Z,16.27
2018-07-21T18:04:33.542Z,16.27
2018-07-21T18:07:09.582Z,23.40
2018-07-21T18:09:45.456Z,17.20
2018-07-21T18:12:19.759Z,16.37
2018-07-21T18:14:55.327Z,16.07
2018-07-21T18:17:29.751Z,15.73
2018-07-21T18:20:05.930Z,16.37
2018-07-21T18:22:48.339Z,15.27
2018-07-21T18:25:22.595Z,18.07
2018-07-21T18:27:57.199Z,15.73
2018-07-21T18:30:31.714Z,16.00
2018-07-21T18:33:07.540Z,15.20
2018-07-21T18:35:42.119Z,13.43
2018-07-21T18:38:16.606Z,16.13
2018-07-21T18:40:52.529Z,16.17
2018-07-21T18:43:27.023Z,16.17
2018-07-21T18:46:02.934Z,17.50
2018-07-21T18:48:37.194Z,17.87
2018-07-21T18:51:13.158Z,15.87
2018-07-21T18:53:47.373Z,16.40
2018-07-21T18:56:21.695Z,17.73
2018-07-21T18:58:57.688Z,17.40
2018-07-21T19:01:34.413Z,16.93
2018-07-21T19:04:08.731Z,16.40
2018-07-21T19:06:44.815Z,18.70
2018-07-21T19:09:20.538Z,16.57
2018-07-21T19:12:00.493Z,16.90
2018-07-21T19:14:36.022Z,16.53
2018-07-21T19:17:10.471Z,22.30
2018-07-21T19:20:00.264Z,18.53
2018-07-21T19:22:34.642Z,18.33
2018-07-21T19:25:15.457Z,20.70
2018-07-21T19:27:49.943Z,20.93
2018-07-21T19:30:24.200Z,19.53
2018-07-21T19:33:00.616Z,20.43
2018-07-21T19:35:35.036Z,18.43
2018-07-21T19:38:09.263Z,18.60
2018-07-21T19:40:44.311Z,19.50
2018-07-21T19:43:19.856Z,19.73
2018-07-21T19:45:55.846Z,20.67
2018-07-21T19:48:30.134Z,20.87
2018-07-21T19:51:05.833Z,19.20
2018-07-21T19:53:40.175Z,20.07
2018-07-21T19:56:14.678Z,21.50
2018-07-21T19:58:50.375Z,17.20
2018-07-21T20:01:25.175Z,21.13
2018-07-21T20:03:59.474Z,21.20
2018-07-21T20:06:35.140Z,19.07
2018-07-21T20:09:11.689Z,19.67
2018-07-21T20:11:46.130Z,15.80
2018-07-21T20:14:21.600Z,17.50
2018-07-21T20:16:55.883Z,21.70
2018-07-21T20:19:31.711Z,20.20
2018-07-21T20:22:06.159Z,21.37
2018-07-21T20:24:42.385Z,18.60
2018-07-21T20:27:17.079Z,20.37
2018-07-21T20:29:51.305Z,17.53
2018-07-21T20:32:33.113Z,18.00
2018-07-21T20:35:07.415Z,17.87
2018-07-21T20:37:43.468Z,18.80
2018-07-21T20:40:17.769Z,18.87
2018-07-21T20:42:52.089Z,17.73
2018-07-21T20:45:26.403Z,20.10
2018-07-21T20:48:02.608Z,18.07
2018-07-21T20:50:38.557Z,18.33
2018-07-21T20:53:12.995Z,19.50
2018-07-21T20:55:48.715Z,18.37
2018-07-21T20:58:23.219Z,18.47
2018-07-21T21:00:57.566Z,17.57
2018-07-21T21:03:32.195Z,15.77
2018-07-21T21:06:08.079Z,22.93
2018-07-21T21:08:43.855Z,17.80
2018-07-21T21:11:19.295Z,19.17
2018-07-21T21:13:55.066Z,18.53
2018-07-21T21:16:29.460Z,20.37
2018-07-21T21:19:05.753Z,19.40
2018-07-21T21:21:41.815Z,20.00
2018-07-21T21:24:18.032Z,18.90
2018-07-21T21:26:52.664Z,19.30
2018-07-21T21:29:28.662Z,18.30
2018-07-21T21:32:05.420Z,19.10
2018-07-21T21:34:41.303Z,21.93
2018-07-21T21:37:15.820Z,19.80
2018-07-21T21:39:50.474Z,22.73
2018-07-21T21:42:25.156Z,19.30
2018-07-21T21:44:59.482Z,19.70
2018-07-21T21:47:35.240Z,19.30
2018-07-21T21:50:10.928Z,19.63
2018-07-21T21:52:46.533Z,19.53
2018-07-21T21:55:21.208Z,22.37
2018-07-21T21:57:57.024Z,22.77
2018-07-21T22:00:47.451Z,22.57
2018-07-21T22:03:22.190Z,22.77
2018-07-21T22:05:58.383Z,21.50
2018-07-21T22:08:37.272Z,23.77
2018-07-21T22:11:11.558Z,26.67
2018-07-21T22:13:47.018Z,26.60
2018-07-21T22:16:21.839Z,27.43
2018-07-21T22:18:57.857Z,25.63
2018-07-21T22:21:33.784Z,29.23
2018-07-21T22:24:09.685Z,26.67
2018-07-21T22:26:43.975Z,31.77
2018-07-21T22:29:18.431Z,28.97
2018-07-21T22:31:54.170Z,25.87
2018-07-21T22:34:29.860Z,27.97
2018-07-21T22:37:04.356Z,27.93
2018-07-21T22:39:39.860Z,26.23
2018-07-21T22:42:14.233Z,28.53
2018-07-21T22:44:48.731Z,26.83
2018-07-21T22:47:24.703Z,24.37
2018-07-21T22:50:00.576Z,22.33
2018-07-21T22:52:35.252Z,21.00
2018-07-21T22:55:09.932Z,22.73
2018-07-21T22:57:45.753Z,21.10
2018-07-21T23:00:20.564Z,23.53
2018-07-21T23:02:55.168Z,23.00
2018-07-21T23:05:29.674Z,22.30
2018-07-21T23:08:05.472Z,20.33
2018-07-21T23:10:41.237Z,20.53
2018-07-21T23:13:16.775Z,23.27
2018-07-21T23:15:52.790Z,20.37
2018-07-21T23:18:27.244Z,21.27
2018-07-21T23:21:02.903Z,23.60
2018-07-21T23:23:39.074Z,23.77
2018-07-21T23:26:13.525Z,21.73
2018-07-21T23:28:47.887Z,22.60
2018-07-21T23:31:24.103Z,21.53
2018-07-21T23:34:00.026Z,22.67
2018-07-21T23:36:34.346Z,24.93
2018-07-21T23:39:10.275Z,20.50
2018-07-21T23:41:44.715Z,21.53
2018-07-21T23:44:19.214Z,21.03
2018-07-21T23:46:55.064Z,23.80
2018-07-21T23:49:30.859Z,22.70
2018-07-21T23:52:05.170Z,19.90
2018-07-21T23:54:39.646Z,21.47
2018-07-21T23:57:15.636Z,22.23
2018-07-21T23:59:50.067Z,24.50
